LKCV

Čáslav Air Base Airport

Čáslav, Czech Republic
TAF LKCV 161700Z 1618/1718 25006KT CAVOK PROB40 TEMPO 1618/1620 23012G22KT 7000 TSRA BKN040CB BECMG 1708/1710 31008G18KT PROB40 TEMPO 1709/1717 31014G24KT 7000 TSRA SCT040CB
Issued Valid From Valid To
Jul-16 @ 17:00 UTC
(3 hours ago)
Jul-16 @ 18:00 UTC
(2 hours ago)
Jul-17 @ 18:00 UTC
(in 22 hours)
Jul-16 @ 18:00 to Jul-17 @ 08:00
TAF LKCV 161700Z 1618/1718 25006KT CAVOK
Wind Visibility Clouds Conditions
250° at 6 knots 10,000+ meters
  • No significant clouds
Expired Click to View Jul-16 @ 18:00 to Jul-16 @ 20:00
PROB40 TEMPO 1618/1620 23012G22KT 7000 TSRA BKN040CB
Wind Visibility Clouds Conditions
230° at 12 knots
 Gusting to 22 knots
7,001 meters
  • Broken at 4,000' AGL
  • Thunderstorm
  • Rain
Becoming Jul-17 @ 08:00 to Jul-17 @ 18:00
BECMG 1708/1710 31008G18KT
Wind Visibility Clouds Conditions
310° at 8 knots
 Gusting to 18 knots
10,000+ meters
  • No significant clouds
Temporary  (Probability 40%) Jul-17 @ 09:00 to Jul-17 @ 17:00
PROB40 TEMPO 1709/1717 31014G24KT 7000 TSRA SCT040CB
Wind Visibility Clouds Conditions
310° at 14 knots
 Gusting to 24 knots
7,001 meters
  • Scattered at 4,000' AGL
  • Thunderstorm
  • Rain
TAF LKCV 161700Z 1618/1718 25006KT CAVOK PROB40 TEMPO 1618/1620 23012G22KT 7000 TSRA BKN040CB BECMG 1708/1710 31008G18KT PROB40 TEMPO 1709/1717 31014G24KT 7000 TSRA SCT040CB
Issued Jul-16 @ 17:00 UTC
(3 hours ago)
Valid From Jul-16 @ 18:00 UTC
(2 hours ago)
Valid To Jul-17 @ 18:00 UTC
(in 22 hours)
Jul-16 @ 18:00 - Jul-17 @ 08:00
Wind Visibility
250° at 6 knots 10,000+ meters
Clouds
  • No significant clouds
Conditions
Jul-16 @ 18:00 - Jul-16 @ 20:00
Wind Visibility
230° at 12 knots
 Gusting to 22 knots
7,001 meters
Clouds
  • Broken at 4,000' AGL
Conditions
  • Thunderstorm
  • Rain
Becoming Jul-17 @ 08:00 - Jul-17 @ 18:00
Wind Visibility
310° at 8 knots
 Gusting to 18 knots
10,000+ meters
Clouds
  • No significant clouds
Conditions
Probability 40% Temporary Jul-17 @ 09:00 - Jul-17 @ 17:00
Wind Visibility
310° at 14 knots
 Gusting to 24 knots
7,001 meters
Clouds
  • Scattered at 4,000' AGL
Conditions
  • Thunderstorm
  • Rain